Wednesday, October 17, 2018, 12:26 PM EDT
Back to Local

KHPN, White Plains Westchester

Location: Greenwich, NY, United States Lat: 41.067
Local Time: 12:26 PM EDT (16:26 GMT) Lon: -73.7
Time Zone: US/Eastern Elev: 439 ft

Show me the last for .
Show Coded

Time T Td Feel RH Dir Speed Gust Alt SLP Vis Weather Sky Remarks
2018-10-17 11:56 56 40 - 54 Variable 6 - 29.90 29.91 10 FEW030 None
2018-10-17 10:56 52 39 - 61 250° 12 16 29.93 29.93 10 CLR None
2018-10-17 09:56 50 38 44 63 Variable 6 17 29.94 29.95 10 CLR None
2018-10-17 08:56 48 37 42 65 260° 9 17 29.96 29.96 10 CLR None
2018-10-17 07:56 43 37 40 79 260° 5 - 29.96 29.97 10 CLR 6-hr Min Temp (8am): 39.0°F
6-hr Max Temp (8am): 45.0°F
2018-10-17 06:56 43 36 41 76 280° 3 - 29.97 29.98 10 CLR None
2018-10-17 05:56 40 36 - 85 - Calm - 29.97 29.98 10 CLR None
2018-10-17 04:56 42 37 39 82 270° 5 - 29.98 29.99 10 CLR None
2018-10-17 03:56 44 37 41 76 260° 6 - 29.99 30.00 10 CLR None
2018-10-17 02:56 45 37 - 73 - Calm - 30.01 30.01 10 CLR None
2018-10-17 01:56 44 38 - 78 - Calm - 30.02 30.03 10 CLR 6-hr Min Temp (2am): 44.1°F
6-hr Max Temp (2am): 48.0°F
2018-10-16 23:56 46 37 44 70 270° 5 - 30.04 30.05 10 CLR None
2018-10-16 22:56 46 37 43 70 270° 6 - 30.04 30.05 10 CLR None
2018-10-16 21:56 47 36 45 65 260° 5 - 30.05 30.06 10 CLR None
2018-10-16 20:56 47 36 45 65 260° 5 - 30.05 30.06 10 CLR None
2018-10-16 19:56 48 36 46 62 250° 5 - 30.05 30.06 10 CLR 6-hr Min Temp (8pm): 46.0°F
6-hr Max Temp (8pm): 53.1°F
2018-10-16 18:56 47 38 - 70 - Calm - 30.05 30.05 10 CLR None
2018-10-16 17:56 49 36 - 60 - Calm - 30.04 30.05 10 CLR None
2018-10-16 16:56 53 33 - 46 - Calm - 30.03 30.04 10 CLR None
2018-10-16 15:56 52 31 - 44 Variable 6 - 30.05 30.05 10 CLR None
2018-10-16 14:56 52 30 - 42 290° 10 - 30.06 30.06 10 CLR None
2018-10-16 13:56 51 30 - 44 310° 14 - 30.08 30.08 10 CLR 6-hr Min Temp (2pm): 44.1°F
6-hr Max Temp (2pm): 52.0°F
2018-10-16 12:56 50 31 46 47 300° 12 - 30.11 30.11 10 CLR None

Support USWX by starting your Amazon purchase here.